Time;durP1;ratioP1;P1;durP2;ratioP2;P2;SDS_P1;SDS_P2;PMS_P1;PMS_P2;Temp;Humidity;BMP_temperature;BMP_pressure;BME280_temperature;BME280_humidity;BME280_pressure;Samples;Min_cycle;Max_cycle;Signal;HPM_P1;HPM_P2
2023/10/16 00:01:10;;;;;;;;;;;;;;;;;;5038196;28;4408;-57
2023/10/16 00:03:38;;;;;;;;;;;;;;;;;;5037499;28;5202;-57
2023/10/16 00:12:08;;;;;;;;;;;;;;;;;;5037567;28;4647;-57
2023/10/16 00:17:36;;;;;;;;;;;;;;;;;;5037412;28;4483;-58
2023/10/16 00:20:04;;;;;;;;;;;;;;;;;;5037708;28;1348;-57
2023/10/16 00:22:31;;;;;;;;;;;;;;;;;;5036940;28;4968;-57
2023/10/16 00:24:58;;;;;;;;;;;;;;;;;;5037417;28;5043;-57
2023/10/16 00:30:27;;;;;;;;;;;;;;;;;;5037144;28;5023;-57
2023/10/16 00:32:52;;;;;;;;;;;;;;;;;;5036758;28;5112;-57
2023/10/16 00:35:17;;;;;;;;;;;;;;;;;;5037379;28;1087;-56
2023/10/16 00:37:43;;;;;;;;;;;;;;;;;;5036963;28;5120;-57
2023/10/16 00:43:12;;;;;;;;;;;;;;;;;;5036897;28;5082;-56
2023/10/16 00:45:59;;;;;;;;;;;;;;;;;;5035559;28;5457;-57
2023/10/16 00:51:28;;;;;;;;;;;;;;;;;;5036642;28;5052;-56
2023/10/16 00:53:53;;;;;;;;;;;;;;;;;;5035233;28;5008;-57
2023/10/16 00:56:19;;;;;;;;;;;;;;;;;;5037183;28;1091;-57
2023/10/16 00:58:48;;;;;;;;;;;;;;;;;;5036443;28;4395;-57
2023/10/16 01:04:19;;;;;;;;;;;;;;;;;;5032495;28;4994;-57
2023/10/16 01:06:44;;;;;;;;;;;;;;;;;;5036116;28;5020;-57
2023/10/16 01:09:12;;;;;;;;;;;;;;;;;;5036477;28;5203;-57
2023/10/16 01:11:37;;;;;;;;;;;;;;;;;;5036544;28;5114;-57
2023/10/16 01:14:31;;;;;;;;;;;;;;;;;;5035779;28;913;-57
2023/10/16 01:16:56;;;;;;;;;;;;;;;;;;5029658;28;5113;-56
2023/10/16 01:19:24;;;;;;;;;;;;;;;;;;5035624;28;4977;-57
2023/10/16 01:24:52;;;;;;;;;;;;;;;;;;5036342;28;5014;-56
2023/10/16 01:30:20;;;;;;;;;;;;;;;;;;5036119;28;5229;-57
2023/10/16 01:36:07;;;;;;;;;;;;;;;;;;5035773;28;5128;-57
2023/10/16 01:38:32;;;;;;;;;;;;;;;;;;5035515;28;4548;-57
2023/10/16 01:41:09;;;;;;;;;;;;;;;;;;5051674;28;1495;-57
2023/10/16 01:46:37;;;;;;;;;;;;;;;;;;5036696;28;4834;-57
2023/10/16 01:49:04;;;;;;;;;;;;;;;;;;5035261;28;5021;-57
2023/10/16 01:51:30;;;;;;;;;;;;;;;;;;5035819;28;4429;-57
2023/10/16 01:53:55;;;;;;;;;;;;;;;;;;5035273;28;5085;-57
2023/10/16 01:59:24;;;;;;;;;;;;;;;;;;5036451;28;5459;-57
2023/10/16 02:11:26;;;;;;;;;;;;;;;;;;5035958;28;4731;-56
2023/10/16 02:13:53;;;;;;;;;;;;;;;;;;5034979;28;5316;-56
2023/10/16 02:16:18;;;;;;;;;;;;;;;;;;5035187;28;4456;-56
2023/10/16 02:18:46;;;;;;;;;;;;;;;;;;5031855;28;4896;-56
2023/10/16 02:24:16;;;;;;;;;;;;;;;;;;5034880;28;4563;-56
2023/10/16 02:29:49;;;;;;;;;;;;;;;;;;5034934;28;5490;-56
2023/10/16 02:32:15;;;;;;;;;;;;;;;;;;5050829;28;1420;-56
2023/10/16 02:34:41;;;;;;;;;;;;;;;;;;5034675;28;4997;-57
2023/10/16 02:37:06;;;;;;;;;;;;;;;;;;5016996;28;5289;-56
2023/10/16 02:42:34;;;;;;;;;;;;;;;;;;5034989;28;5031;-58
2023/10/16 02:48:03;;;;;;;;;;;;;;;;;;5034402;28;5282;-58
2023/10/16 02:50:29;;;;;;;;;;;;;;;;;;5033444;28;1292;-58
2023/10/16 02:52:54;;;;;;;;;;;;;;;;;;5034157;28;5020;-56
2023/10/16 02:55:19;;;;;;;;;;;;;;;;;;5034445;28;4983;-56
2023/10/16 03:09:55;;;;;;;;;;;;;;;;;;5034326;28;5094;-57
2023/10/16 03:15:29;;;;;;;;;;;;;;;;;;5034578;28;4380;-57
2023/10/16 03:17:54;;;;;;;;;;;;;;;;;;5033880;28;5108;-57
2023/10/16 03:20:21;;;;;;;;;;;;;;;;;;5034814;28;1215;-57
2023/10/16 03:22:53;;;;;;;;;;;;;;;;;;5033987;28;4582;-57
2023/10/16 03:25:31;;;;;;;;;;;;;;;;;;5033484;28;5032;-57
2023/10/16 03:28:01;;;;;;;;;;;;;;;;;;5033860;28;5185;-57
2023/10/16 03:33:29;;;;;;;;;;;;;;;;;;5034285;28;4987;-57
2023/10/16 03:38:59;;;;;;;;;;;;;;;;;;5033781;28;4607;-57
2023/10/16 03:43:56;;;;;;;;;;;;;;;;;;5033763;28;5056;-57
2023/10/16 03:46:22;;;;;;;;;;;;;;;;;;5030646;28;4821;-57
2023/10/16 03:48:48;;;;;;;;;;;;;;;;;;5033352;28;5023;-57
2023/10/16 03:51:16;;;;;;;;;;;;;;;;;;5032420;28;4939;-57
2023/10/16 03:53:44;;;;;;;;;;;;;;;;;;5031632;28;5008;-57
2023/10/16 03:59:12;;;;;;;;;;;;;;;;;;5034571;28;4739;-57
2023/10/16 04:01:37;;;;;;;;;;;;;;;;;;5033558;28;4883;-58
2023/10/16 04:04:06;;;;;;;;;;;;;;;;;;5032128;28;4987;-57
2023/10/16 04:06:35;;;;;;;;;;;;;;;;;;5033759;28;5013;-57
2023/10/16 04:12:06;;;;;;;;;;;;;;;;;;5033479;28;4958;-57
2023/10/16 04:17:16;;;;;;;;;;;;;;;;;;5018258;28;1133;-57
2023/10/16 04:19:52;;;;;;;;;;;;;;;;;;5033384;28;4655;-58
2023/10/16 04:22:18;;;;;;;;;;;;;;;;;;5033610;28;4931;-57
2023/10/16 04:27:49;;;;;;;;;;;;;;;;;;5034343;28;5091;-57
2023/10/16 04:35:51;;;;;;;;;;;;;;;;;;5017291;28;1369;-57
2023/10/16 04:38:27;;;;;;;;;;;;;;;;;;5017473;28;4658;-57
2023/10/16 04:43:49;;;;;;;;;;;;;;;;;;5016766;28;4435;-57
2023/10/16 04:49:17;;;;;;;;;;;;;;;;;;5016690;28;5030;-57
2023/10/16 04:51:52;;;;;;;;;;;;;;;;;;5015159;28;4962;-57
2023/10/16 04:54:27;;;;;;;;;;;;;;;;;;5015077;28;5112;-57
2023/10/16 05:00:12;;;;;;;;;;;;;;;;;;5017352;28;4483;-56
2023/10/16 05:05:56;;;;;;;;;;;;;;;;;;5016415;28;4436;-57
2023/10/16 06:14:45;;;;;;;;;;;;;;;;;;5033670;28;4948;-59
2023/10/16 06:17:15;;;;;;;;;;;;;;;;;;5035264;28;1219;-60
2023/10/16 06:19:42;;;;;;;;;;;;;;;;;;5034810;28;4809;-59
2023/10/16 06:22:08;;;;;;;;;;;;;;;;;;5029944;28;4636;-59
2023/10/16 06:24:35;;;;;;;;;;;;;;;;;;5034457;28;4987;-60
2023/10/16 06:27:01;;;;;;;;;;;;;;;;;;5049733;28;4965;-60
2023/10/16 06:30:08;;;;;;;;;;;;;;;;;;5035279;28;1969;-60
2023/10/16 06:35:18;;;;;;;;;;;;;;;;;;5035296;28;5541;-60
2023/10/16 06:40:46;;;;;;;;;;;;;;;;;;5034084;28;4443;-59
2023/10/16 06:43:12;;;;;;;;;;;;;;;;;;5032797;28;4749;-60
2023/10/16 06:45:42;;;;;;;;;;;;;;;;;;5049668;28;5807;-60
2023/10/16 06:51:15;;;;;;;;;;;;;;;;;;5033713;28;4941;-63
2023/10/16 06:53:40;;;;;;;;;;;;;;;;;;5033994;28;4860;-63
2023/10/16 06:59:07;;;;;;;;;;;;;;;;;;5035065;28;4549;-59
2023/10/16 07:01:34;;;;;;;;;;;;;;;;;;5034042;28;5320;-59
2023/10/16 07:04:00;;;;;;;;;;;;;;;;;;5049400;28;5062;-59
2023/10/16 07:06:32;;;;;;;;;;;;;;;;;;5034013;28;5008;-59
2023/10/16 07:08:57;;;;;;;;;;;;;;;;;;5032769;28;5042;-59
2023/10/16 07:11:24;;;;;;;;;;;;;;;;;;5034773;28;1078;-59
2023/10/16 07:13:49;;;;;;;;;;;;;;;;;;5033812;28;5155;-59
2023/10/16 07:19:18;;;;;;;;;;;;;;;;;;5034639;28;4396;-57
2023/10/16 07:21:48;;;;;;;;;;;;;;;;;;5020939;28;5046;-58
2023/10/16 07:24:15;;;;;;;;;;;;;;;;;;5032628;28;4456;-60
2023/10/16 07:30:23;;;;;;;;;;;;;;;;;;5033711;28;4714;-58
2023/10/16 07:32:51;;;;;;;;;;;;;;;;;;5030939;28;4996;-58
2023/10/16 07:35:17;;;;;;;;;;;;;;;;;;5032933;28;997;-59
2023/10/16 07:37:43;;;;;;;;;;;;;;;;;;5033621;28;5114;-59
2023/10/16 07:40:08;;;;;;;;;;;;;;;;;;5016131;28;5229;-59
2023/10/16 07:42:35;;;;;;;;;;;;;;;;;;5033632;28;5014;-59
2023/10/16 07:45:01;;;;;;;;;;;;;;;;;;5033747;28;4935;-59
2023/10/16 07:47:32;;;;;;;;;;;;;;;;;;5034652;28;1906;-58
2023/10/16 07:49:57;;;;;;;;;;;;;;;;;;5033697;28;4700;-58
2023/10/16 07:52:22;;;;;;;;;;;;;;;;;;5033994;28;5033;-58
2023/10/16 07:54:47;;;;;;;;;;;;;;;;;;5033479;28;4881;-58
2023/10/16 07:57:17;;;;;;;;;;;;;;;;;;5033484;28;4989;-58
2023/10/16 07:59:43;;;;;;;;;;;;;;;;;;5034038;28;5257;-59
2023/10/16 08:02:08;;;;;;;;;;;;;;;;;;5034068;28;1305;-58
2023/10/16 08:07:49;;;;;;;;;;;;;;;;;;5037641;28;5140;-58
2023/10/16 08:13:11;;;;;;;;;;;;;;;;;;5037306;28;4603;-58
2023/10/16 08:15:36;;;;;;;;;;;;;;;;;;5034283;28;4452;-58
2023/10/16 08:18:01;;;;;;;;;;;;;;;;;;5036095;28;4956;-59
2023/10/16 08:23:36;;;;;;;;;;;;;;;;;;5037663;28;4958;-58
2023/10/16 08:29:34;;;;;;;;;;;;;;;;;;5037612;28;4607;-59
2023/10/16 08:34:43;;;;;;;;;;;;;;;;;;5036818;28;5049;-58
2023/10/16 08:37:13;;;;;;;;;;;;;;;;;;5036823;28;5008;-58
2023/10/16 08:39:44;;;;;;;;;;;;;;;;;;5036823;28;4825;-58
2023/10/16 08:44:44;;;;;;;;;;;;;;;;;;5026581;28;5180;-58
2023/10/16 08:47:16;;;;;;;;;;;;;;;;;;5035892;28;1081;-58
2023/10/16 08:49:51;;;;;;;;;;;;;;;;;;5034974;28;5134;-58
2023/10/16 08:52:20;;;;;;;;;;;;;;;;;;5036346;28;4932;-58
2023/10/16 08:55:00;;;;;;;;;;;;;;;;;;5034721;28;5004;-58
2023/10/16 08:57:25;;;;;;;;;;;;;;;;;;5036371;28;5014;-58
2023/10/16 08:59:57;;;;;;;;;;;;;;;;;;5035438;28;5088;-57
2023/10/16 09:05:26;;;;;;;;;;;;;;;;;;5036986;28;5430;-57
2023/10/16 09:07:51;;;;;;;;;;;;;;;;;;5034245;28;5014;-57
2023/10/16 09:10:21;;;;;;;;;;;;;;;;;;5036192;28;5091;-57
2023/10/16 09:13:07;;;;;;;;;;;;;;;;;;5032955;28;5207;-57
2023/10/16 09:15:32;;;;;;;;;;;;;;;;;;5035198;28;5018;-57
2023/10/16 09:17:57;;;;;;;;;;;;;;;;;;5032981;28;4380;-57
2023/10/16 09:26:54;;;;;;;;;;;;;;;;;;5026931;28;4531;-65
2023/10/16 09:29:23;;;;;;;;;;;;;;;;;;5055216;28;1976;-64
2023/10/16 09:31:49;;;;;;;;;;;;;;;;;;5035544;28;5137;-65
2023/10/16 09:34:18;;;;;;;;;;;;;;;;;;5034357;28;4582;-65
2023/10/16 09:40:18;;;;;;;;;;;;;;;;;;5026439;28;5001;-64
2023/10/16 09:42:45;;;;;;;;;;;;;;;;;;5015641;28;4941;-64
2023/10/16 09:45:11;;;;;;;;;;;;;;;;;;5014495;28;4968;-64
2023/10/16 09:53:50;;;;;;;;;;;;;;;;;;5029425;28;4489;-65
2023/10/16 10:02:35;;;;;;;;;;;;;;;;;;5016200;28;4718;-65
2023/10/16 10:05:09;;;;;;;;;;;;;;;;;;5015731;28;4509;-65
2023/10/16 10:07:36;;;;;;;;;;;;;;;;;;5027025;28;4676;-66
2023/10/16 10:22:45;;;;;;;;;;;;;;;;;;5035306;28;4603;-66
2023/10/16 10:25:16;;;;;;;;;;;;;;;;;;5034812;28;4997;-65
2023/10/16 10:27:42;;;;;;;;;;;;;;;;;;5033408;28;4639;-65
2023/10/16 10:30:19;;;;;;;;;;;;;;;;;;5033793;28;5011;-65
2023/10/16 10:32:55;;;;;;;;;;;;;;;;;;5024213;28;5189;-65
2023/10/16 10:35:22;;;;;;;;;;;;;;;;;;5032139;28;1284;-65
2023/10/16 10:41:10;;;;;;;;;;;;;;;;;;5031185;28;5090;-65
2023/10/16 10:43:46;;;;;;;;;;;;;;;;;;5014831;28;5067;-65
2023/10/16 10:52:32;;;;;;;;;;;;;;;;;;5014512;28;5162;-68
2023/10/16 10:54:58;;;;;;;;;;;;;;;;;;5039162;28;5194;-68
2023/10/16 10:57:23;;;;;;;;;;;;;;;;;;5035285;28;4564;-68
2023/10/16 10:59:55;;;;;;;;;;;;;;;;;;5032700;28;4995;-68
2023/10/16 11:11:28;;;;;;;;;;;;;;;;;;5014626;28;5204;-68
2023/10/16 11:19:59;;;;;;;;;;;;;;;;;;5015051;28;4732;-69
2023/10/16 11:25:30;;;;;;;;;;;;;;;;;;5014330;28;5104;-69
2023/10/16 11:30:59;;;;;;;;;;;;;;;;;;5014207;28;5017;-69
2023/10/16 11:33:34;;;;;;;;;;;;;;;;;;5014215;28;4861;-69
2023/10/16 11:36:03;;;;;;;;;;;;;;;;;;5013874;28;5050;-69
2023/10/16 11:41:32;;;;;;;;;;;;;;;;;;5018706;28;4485;-68
2023/10/16 11:44:01;;;;;;;;;;;;;;;;;;5033064;28;1108;-68
2023/10/16 11:46:30;;;;;;;;;;;;;;;;;;5017935;28;4602;-69
2023/10/16 11:49:17;;;;;;;;;;;;;;;;;;5017533;28;5042;-69
2023/10/16 11:51:52;;;;;;;;;;;;;;;;;;5017915;28;5113;-69
2023/10/16 11:54:19;;;;;;;;;;;;;;;;;;5017820;28;5081;-69
2023/10/16 11:56:47;;;;;;;;;;;;;;;;;;5017501;28;5081;-58
2023/10/16 11:59:12;;;;;;;;;;;;;;;;;;5035747;28;1124;-58
2023/10/16 12:01:37;;;;;;;;;;;;;;;;;;5037458;28;4618;-59
2023/10/16 12:07:05;;;;;;;;;;;;;;;;;;5036089;28;5022;-58
2023/10/16 12:09:37;;;;;;;;;;;;;;;;;;5037216;28;4849;-58
2023/10/16 12:12:06;;;;;;;;;;;;;;;;;;5037483;28;4989;-58
2023/10/16 12:17:35;;;;;;;;;;;;;;;;;;5017487;28;4997;-57
2023/10/16 12:20:03;;;;;;;;;;;;;;;;;;5017410;28;1026;-58
2023/10/16 12:22:31;;;;;;;;;;;;;;;;;;5016993;28;4803;-58
2023/10/16 12:31:03;;;;;;;;;;;;;;;;;;5037116;28;5027;-59
2023/10/16 12:33:30;;;;;;;;;;;;;;;;;;5032377;28;4491;-58
2023/10/16 12:35:55;;;;;;;;;;;;;;;;;;5016965;28;4991;-59
2023/10/16 12:38:23;;;;;;;;;;;;;;;;;;5016928;28;1177;-59
2023/10/16 12:43:51;;;;;;;;;;;;;;;;;;5016857;28;4923;-61
2023/10/16 12:46:17;;;;;;;;;;;;;;;;;;5016594;28;5141;-59
2023/10/16 12:48:44;;;;;;;;;;;;;;;;;;5016224;28;5003;-60
2023/10/16 12:51:10;;;;;;;;;;;;;;;;;;5015784;28;5082;-60
2023/10/16 12:53:52;;;;;;;;;;;;;;;;;;5016827;28;5336;-59
2023/10/16 12:56:20;;;;;;;;;;;;;;;;;;5016952;28;1194;-59
2023/10/16 12:58:46;;;;;;;;;;;;;;;;;;5017063;28;4949;-59
2023/10/16 13:04:15;;;;;;;;;;;;;;;;;;5015142;28;5167;-70
2023/10/16 13:06:40;;;;;;;;;;;;;;;;;;5016369;28;5058;-60
2023/10/16 13:09:05;;;;;;;;;;;;;;;;;;5010336;28;5072;-60
2023/10/16 13:11:31;;;;;;;;;;;;;;;;;;5013372;28;1200;-65
2023/10/16 13:14:34;;;;;;;;;;;;;;;;;;5017531;28;4962;-71
2023/10/16 13:17:00;;;;;;;;;;;;;;;;;;5009843;28;4584;-71
2023/10/16 13:22:31;;;;;;;;;;;;;;;;;;5033161;28;5284;-59
2023/10/16 13:27:59;;;;;;;;;;;;;;;;;;5029317;28;5115;-59
2023/10/16 13:30:26;;;;;;;;;;;;;;;;;;5048018;28;4673;-59
2023/10/16 13:32:51;;;;;;;;;;;;;;;;;;5016406;28;4850;-59
2023/10/16 13:35:16;;;;;;;;;;;;;;;;;;5036127;28;948;-59
2023/10/16 13:43:47;;;;;;;;;;;;;;;;;;5015926;28;4592;-59
2023/10/16 13:46:16;;;;;;;;;;;;;;;;;;5015188;28;4640;-59
2023/10/16 13:48:45;;;;;;;;;;;;;;;;;;5014141;28;4451;-59
2023/10/16 13:51:16;;;;;;;;;;;;;;;;;;5015292;28;4795;-59
2023/10/16 13:53:42;;;;;;;;;;;;;;;;;;4997277;28;4836;-59
2023/10/16 13:56:07;;;;;;;;;;;;;;;;;;5015335;28;1366;-59
2023/10/16 13:58:33;;;;;;;;;;;;;;;;;;5015780;28;5004;-59
2023/10/16 14:04:00;;;;;;;;;;;;;;;;;;5015466;28;5123;-59
2023/10/16 14:06:28;;;;;;;;;;;;;;;;;;5015112;28;4975;-58
2023/10/16 14:08:55;;;;;;;;;;;;;;;;;;5015182;28;5016;-59
2023/10/16 14:11:28;;;;;;;;;;;;;;;;;;5015347;28;1138;-59
2023/10/16 14:14:33;;;;;;;;;;;;;;;;;;5015592;28;5120;-59
2023/10/16 14:17:04;;;;;;;;;;;;;;;;;;5017528;28;5094;-59
2023/10/16 14:25:38;;;;;;;;;;;;;;;;;;5035272;28;5003;-59
2023/10/16 14:30:47;;;;;;;;;;;;;;;;;;5014769;28;4681;-59
2023/10/16 14:36:18;;;;;;;;;;;;;;;;;;5034683;28;5435;-59
2023/10/16 14:41:47;;;;;;;;;;;;;;;;;;5034358;28;4584;-59
2023/10/16 14:44:12;;;;;;;;;;;;;;;;;;5035148;28;1029;-59
2023/10/16 14:46:38;;;;;;;;;;;;;;;;;;5034221;28;4971;-57
2023/10/16 14:52:06;;;;;;;;;;;;;;;;;;5034336;28;4922;-57
2023/10/16 14:54:32;;;;;;;;;;;;;;;;;;5033693;28;5061;-57
2023/10/16 14:56:59;;;;;;;;;;;;;;;;;;5034084;28;4996;-57
2023/10/16 14:59:29;;;;;;;;;;;;;;;;;;5034624;28;1215;-59
2023/10/16 15:04:57;;;;;;;;;;;;;;;;;;5034804;28;4736;-58
2023/10/16 15:07:22;;;;;;;;;;;;;;;;;;5033689;28;4532;-57
2023/10/16 15:09:48;;;;;;;;;;;;;;;;;;5048658;28;5125;-58
2023/10/16 15:12:14;;;;;;;;;;;;;;;;;;5033370;28;4440;-57
2023/10/16 15:20:45;;;;;;;;;;;;;;;;;;5033705;28;5117;-56
2023/10/16 15:23:11;;;;;;;;;;;;;;;;;;5033840;28;1137;-56
2023/10/16 15:25:37;;;;;;;;;;;;;;;;;;5033618;28;4430;-57
2023/10/16 15:28:02;;;;;;;;;;;;;;;;;;5032295;28;4932;-59
2023/10/16 15:33:30;;;;;;;;;;;;;;;;;;5029568;28;4513;-57
2023/10/16 15:35:55;;;;;;;;;;;;;;;;;;5015738;28;5355;-58
2023/10/16 15:38:24;;;;;;;;;;;;;;;;;;5035915;28;4616;-58
2023/10/16 15:40:50;;;;;;;;;;;;;;;;;;5050303;28;5683;-57
2023/10/16 15:43:16;;;;;;;;;;;;;;;;;;5029232;28;5014;-57
2023/10/16 15:48:44;;;;;;;;;;;;;;;;;;5033627;28;5282;-57
2023/10/16 15:54:14;;;;;;;;;;;;;;;;;;5029150;28;4567;-58
2023/10/16 15:56:40;;;;;;;;;;;;;;;;;;5033430;28;5317;-57
2023/10/16 15:59:05;;;;;;;;;;;;;;;;;;5033317;28;5026;-57
2023/10/16 16:01:30;;;;;;;;;;;;;;;;;;5033673;28;4671;-58
2023/10/16 16:03:57;;;;;;;;;;;;;;;;;;5032041;28;4698;-57
2023/10/16 16:06:24;;;;;;;;;;;;;;;;;;5033871;28;1082;-57
2023/10/16 16:11:52;;;;;;;;;;;;;;;;;;5033324;28;5310;-57
2023/10/16 16:14:17;;;;;;;;;;;;;;;;;;5033350;28;4937;-55
2023/10/16 16:16:44;;;;;;;;;;;;;;;;;;5033955;28;1206;-62
2023/10/16 16:19:09;;;;;;;;;;;;;;;;;;5033809;28;980;-62
2023/10/16 16:21:34;;;;;;;;;;;;;;;;;;5022976;28;4488;-61
2023/10/16 16:27:02;;;;;;;;;;;;;;;;;;5037083;28;4835;-59
2023/10/16 16:32:30;;;;;;;;;;;;;;;;;;5037721;28;4730;-60
2023/10/16 16:34:55;;;;;;;;;;;;;;;;;;5037213;28;4429;-59
2023/10/16 16:37:21;;;;;;;;;;;;;;;;;;5036958;28;5497;-59
2023/10/16 16:39:46;;;;;;;;;;;;;;;;;;5036984;28;4976;-60
2023/10/16 16:45:15;;;;;;;;;;;;;;;;;;5036704;28;4407;-64
2023/10/16 16:47:43;;;;;;;;;;;;;;;;;;5037170;28;948;-59
2023/10/16 16:50:13;;;;;;;;;;;;;;;;;;5037025;28;5190;-60
2023/10/16 16:52:41;;;;;;;;;;;;;;;;;;5036177;28;5161;-59
2023/10/16 16:58:10;;;;;;;;;;;;;;;;;;5036202;28;4604;-59
2023/10/16 17:03:38;;;;;;;;;;;;;;;;;;5036525;28;5098;-60
2023/10/16 17:09:07;;;;;;;;;;;;;;;;;;5036502;28;5156;-60
2023/10/16 17:11:32;;;;;;;;;;;;;;;;;;5051770;28;1379;-60
2023/10/16 17:13:58;;;;;;;;;;;;;;;;;;5034896;28;4971;-61
2023/10/16 17:16:25;;;;;;;;;;;;;;;;;;5020796;28;4914;-59
2023/10/16 17:18:50;;;;;;;;;;;;;;;;;;5016542;28;5083;-62
2023/10/16 17:24:19;;;;;;;;;;;;;;;;;;5016257;28;4437;-62
2023/10/16 17:26:45;;;;;;;;;;;;;;;;;;5016472;28;5140;-61
2023/10/16 17:29:10;;;;;;;;;;;;;;;;;;5016189;28;1975;-60
2023/10/16 17:31:35;;;;;;;;;;;;;;;;;;5016087;28;4659;-59
2023/10/16 17:34:04;;;;;;;;;;;;;;;;;;5015879;28;4439;-59
2023/10/16 17:39:35;;;;;;;;;;;;;;;;;;5016473;28;4615;-59
2023/10/16 17:45:05;;;;;;;;;;;;;;;;;;5016007;28;5204;-61
2023/10/16 17:47:50;;;;;;;;;;;;;;;;;;5016313;28;928;-60
2023/10/16 17:50:15;;;;;;;;;;;;;;;;;;5015589;28;5058;-61
2023/10/16 17:55:44;;;;;;;;;;;;;;;;;;5015756;28;4953;-60
2023/10/16 17:58:09;;;;;;;;;;;;;;;;;;5015232;28;4812;-59
2023/10/16 18:00:40;;;;;;;;;;;;;;;;;;5015687;28;5113;-60
2023/10/16 18:03:08;;;;;;;;;;;;;;;;;;5015475;28;4413;-60
2023/10/16 18:05:34;;;;;;;;;;;;;;;;;;5016373;28;1025;-60
2023/10/16 18:08:00;;;;;;;;;;;;;;;;;;5015173;28;5455;-60
2023/10/16 18:10:27;;;;;;;;;;;;;;;;;;5015691;28;4998;-60
2023/10/16 18:13:12;;;;;;;;;;;;;;;;;;5015846;28;4905;-60
2023/10/16 18:15:37;;;;;;;;;;;;;;;;;;5015149;28;4917;-60
2023/10/16 18:18:03;;;;;;;;;;;;;;;;;;5015245;28;5003;-59
2023/10/16 18:20:31;;;;;;;;;;;;;;;;;;5015734;28;1180;-60
2023/10/16 18:26:00;;;;;;;;;;;;;;;;;;5015401;28;4950;-59
2023/10/16 18:28:28;;;;;;;;;;;;;;;;;;5014626;28;4444;-59
2023/10/16 18:30:56;;;;;;;;;;;;;;;;;;4997477;28;4483;-64
2023/10/16 18:33:22;;;;;;;;;;;;;;;;;;5023771;28;4949;-64
2023/10/16 18:36:25;;;;;;;;;;;;;;;;;;5024737;28;5387;-64
2023/10/16 18:38:50;;;;;;;;;;;;;;;;;;5032828;28;4999;-63
2023/10/16 18:47:17;;;;;;;;;;;;;;;;;;5018129;28;4762;-64
2023/10/16 18:49:45;;;;;;;;;;;;;;;;;;5012254;28;4904;-64
2023/10/16 18:52:10;;;;;;;;;;;;;;;;;;5027405;28;4891;-63
2023/10/16 18:57:38;;;;;;;;;;;;;;;;;;5033936;28;5163;-66
2023/10/16 19:00:05;;;;;;;;;;;;;;;;;;5034591;28;4452;-61
2023/10/16 19:02:31;;;;;;;;;;;;;;;;;;5034579;28;1192;-68
2023/10/16 19:04:56;;;;;;;;;;;;;;;;;;5034707;28;5049;-64
2023/10/16 19:10:24;;;;;;;;;;;;;;;;;;5034698;28;4860;-64
2023/10/16 19:12:55;;;;;;;;;;;;;;;;;;5034345;28;4827;-66
2023/10/16 19:15:21;;;;;;;;;;;;;;;;;;5034464;28;4983;-64
2023/10/16 19:17:48;;;;;;;;;;;;;;;;;;5033963;28;5035;-66
2023/10/16 19:23:16;;;;;;;;;;;;;;;;;;5034992;28;4579;-64
2023/10/16 19:28:43;;;;;;;;;;;;;;;;;;5034127;28;5084;-65
2023/10/16 19:34:12;;;;;;;;;;;;;;;;;;5034401;28;4883;-65
2023/10/16 19:36:40;;;;;;;;;;;;;;;;;;5033844;28;4844;-64
2023/10/16 19:39:05;;;;;;;;;;;;;;;;;;5033965;28;4603;-65
2023/10/16 19:41:34;;;;;;;;;;;;;;;;;;5034528;28;1080;-65
2023/10/16 19:47:04;;;;;;;;;;;;;;;;;;5034623;28;4668;-65
2023/10/16 19:52:44;;;;;;;;;;;;;;;;;;5033696;28;4849;-64
2023/10/16 19:55:09;;;;;;;;;;;;;;;;;;5033641;28;5066;-63
2023/10/16 19:57:37;;;;;;;;;;;;;;;;;;5033534;28;5100;-64
2023/10/16 20:03:05;;;;;;;;;;;;;;;;;;5037924;28;5081;-61
2023/10/16 20:05:31;;;;;;;;;;;;;;;;;;5037976;28;1187;-62
2023/10/16 20:07:56;;;;;;;;;;;;;;;;;;5037813;28;5849;-62
2023/10/16 20:10:21;;;;;;;;;;;;;;;;;;5037332;28;5275;-64
2023/10/16 20:13:08;;;;;;;;;;;;;;;;;;5037995;28;4443;-64
2023/10/16 20:15:34;;;;;;;;;;;;;;;;;;5037169;28;4404;-63
2023/10/16 20:18:00;;;;;;;;;;;;;;;;;;5037464;28;5115;-63
2023/10/16 20:20:28;;;;;;;;;;;;;;;;;;5036579;28;1164;-64
2023/10/16 20:25:56;;;;;;;;;;;;;;;;;;5037488;28;4994;-64
2023/10/16 20:28:22;;;;;;;;;;;;;;;;;;5037013;28;5175;-63
2023/10/16 20:30:47;;;;;;;;;;;;;;;;;;5037232;28;4997;-64
2023/10/16 20:33:13;;;;;;;;;;;;;;;;;;5052660;28;4622;-63
2023/10/16 20:35:41;;;;;;;;;;;;;;;;;;5019663;28;1178;-63
2023/10/16 20:41:10;;;;;;;;;;;;;;;;;;5037912;28;4756;-63
2023/10/16 20:46:38;;;;;;;;;;;;;;;;;;5037330;28;4927;-63
2023/10/16 20:49:03;;;;;;;;;;;;;;;;;;5037302;28;5026;-62
2023/10/16 20:51:29;;;;;;;;;;;;;;;;;;5036660;28;5078;-63
2023/10/16 20:53:54;;;;;;;;;;;;;;;;;;5036832;28;5230;-63
2023/10/16 20:56:19;;;;;;;;;;;;;;;;;;5036964;28;1181;-63
2023/10/16 20:58:46;;;;;;;;;;;;;;;;;;5036377;28;4841;-62
2023/10/16 21:01:11;;;;;;;;;;;;;;;;;;5036709;28;5035;-63
2023/10/16 21:03:36;;;;;;;;;;;;;;;;;;5036542;28;4832;-63
2023/10/16 21:06:04;;;;;;;;;;;;;;;;;;5036667;28;4825;-62
2023/10/16 21:11:32;;;;;;;;;;;;;;;;;;5036231;28;4727;-63
2023/10/16 21:16:59;;;;;;;;;;;;;;;;;;5037087;28;5220;-63
2023/10/16 21:19:25;;;;;;;;;;;;;;;;;;5036190;28;5112;-62
2023/10/16 21:21:50;;;;;;;;;;;;;;;;;;5036929;28;5075;-63
2023/10/16 21:24:15;;;;;;;;;;;;;;;;;;5036688;28;5163;-62
2023/10/16 21:26:40;;;;;;;;;;;;;;;;;;5036456;28;1337;-63
2023/10/16 21:32:11;;;;;;;;;;;;;;;;;;5036969;28;4568;-63
2023/10/16 21:37:39;;;;;;;;;;;;;;;;;;5036474;28;4931;-63
2023/10/16 21:43:07;;;;;;;;;;;;;;;;;;5036118;28;5105;-62
2023/10/16 21:45:32;;;;;;;;;;;;;;;;;;5035992;28;5129;-63
2023/10/16 21:47:59;;;;;;;;;;;;;;;;;;5035841;28;5072;-62
2023/10/16 21:50:25;;;;;;;;;;;;;;;;;;5035987;28;1910;-63
2023/10/16 21:55:52;;;;;;;;;;;;;;;;;;5035800;28;5055;-63
2023/10/16 21:58:18;;;;;;;;;;;;;;;;;;5035787;28;4389;-63
2023/10/16 22:00:58;;;;;;;;;;;;;;;;;;5035549;28;4634;-62
2023/10/16 22:03:27;;;;;;;;;;;;;;;;;;5035974;28;5006;-63
2023/10/16 22:05:53;;;;;;;;;;;;;;;;;;5035078;28;5334;-62
2023/10/16 22:08:18;;;;;;;;;;;;;;;;;;5036000;28;1926;-62
2023/10/16 22:10:45;;;;;;;;;;;;;;;;;;5035078;28;5049;-62
2023/10/16 22:19:15;;;;;;;;;;;;;;;;;;5035528;28;5043;-62
2023/10/16 22:21:40;;;;;;;;;;;;;;;;;;5034733;28;5032;-62
2023/10/16 22:24:07;;;;;;;;;;;;;;;;;;5035935;28;5026;-62
2023/10/16 22:26:33;;;;;;;;;;;;;;;;;;5035419;28;1087;-62
2023/10/16 22:32:01;;;;;;;;;;;;;;;;;;5035162;28;4368;-63
2023/10/16 22:37:29;;;;;;;;;;;;;;;;;;5035313;28;4747;-63
2023/10/16 22:39:54;;;;;;;;;;;;;;;;;;5034694;28;4647;-62
2023/10/16 22:42:19;;;;;;;;;;;;;;;;;;5035020;28;5060;-63
2023/10/16 22:44:45;;;;;;;;;;;;;;;;;;5034723;28;4798;-62
2023/10/16 22:50:13;;;;;;;;;;;;;;;;;;5035485;28;4736;-63
2023/10/16 22:52:38;;;;;;;;;;;;;;;;;;5021765;28;4649;-62
2023/10/16 22:55:05;;;;;;;;;;;;;;;;;;5015274;28;5041;-63
2023/10/16 22:57:32;;;;;;;;;;;;;;;;;;5014670;28;5021;-63
2023/10/16 23:06:02;;;;;;;;;;;;;;;;;;5034545;28;4624;-63
2023/10/16 23:08:31;;;;;;;;;;;;;;;;;;5023585;28;1967;-63
2023/10/16 23:11:00;;;;;;;;;;;;;;;;;;5014987;28;5038;-63
2023/10/16 23:13:25;;;;;;;;;;;;;;;;;;4996605;28;4870;-63
2023/10/16 23:18:53;;;;;;;;;;;;;;;;;;5014516;28;5023;-63
2023/10/16 23:21:24;;;;;;;;;;;;;;;;;;5014363;28;5116;-62
2023/10/16 23:23:50;;;;;;;;;;;;;;;;;;5014463;28;5012;-62
2023/10/16 23:26:18;;;;;;;;;;;;;;;;;;5014740;28;993;-62
2023/10/16 23:28:44;;;;;;;;;;;;;;;;;;5014187;28;5175;-62
2023/10/16 23:31:10;;;;;;;;;;;;;;;;;;5013259;28;4956;-62
2023/10/16 23:33:40;;;;;;;;;;;;;;;;;;5013881;28;5187;-62
2023/10/16 23:36:05;;;;;;;;;;;;;;;;;;5014253;28;4883;-62
2023/10/16 23:38:30;;;;;;;;;;;;;;;;;;5014457;28;1109;-62
2023/10/16 23:41:02;;;;;;;;;;;;;;;;;;5029213;28;4618;-62
2023/10/16 23:46:31;;;;;;;;;;;;;;;;;;5014260;28;4417;-62
2023/10/16 23:49:07;;;;;;;;;;;;;;;;;;5013687;28;5119;-62
2023/10/16 23:51:36;;;;;;;;;;;;;;;;;;5011039;28;4452;-61
2023/10/16 23:54:13;;;;;;;;;;;;;;;;;;5014171;28;4996;-62
2023/10/16 23:59:48;;;;;;;;;;;;;;;;;;5013799;28;5103;-63
